Alexandria, NE (68303)

7:14 PM CDT on July 05, 2015 (GMT -0500)
Crystal Springs Campground | | Change Station
CLOSE
Current Station
Personal Weather Station
Location: Fairbury, NE
Elevation: 1424 ft
Nearby Weather Stations

Elev 1424 ft 40.13 °N, 97.21 °W | Updated 8 seconds ago

Clear
Clear
92.2 °F
Feels Like 103 °F
N
7.0
Wind Variable Wind from SSE
Gusts 16.0 mph

Today
High -- | Low -- °F
--% Chance of Precip.
Yesterday
High -- | Low -- °F
Precip. -- in
6:05 AM 9:02 PM
Waning Gibbous, 81% visible
Pressure 29.76 in
Visibility 10.0 miles
Clouds Clear
Heat Index 103 °F
Dew Point 75 °F
Humidity 57%
Rainfall 0.00 in
Snow Depth Not available.
UV 2 out of 12
Pollen 3.90 out of 12
Air Quality Not available.
Flu Activity Not available.
METAR KHJH 052355Z AUTO 17011KT 10SM CLR 34/17 A2976 RMK AO2 T03430171 10351 20313

More Conditions Fewer Conditions

Pressure 29.76 in
Visibility 10.0 miles
Clouds Clear
Heat Index 103 °F
Dew Point 75 °F
Humidity 57%
Rainfall 0.00 in
Snow Depth Not available.
UV 2 out of 12
Pollen 3.90 out of 12
Air Quality Not available.
Flu Activity Not available.
METAR KHJH 052355Z AUTO 17011KT 10SM CLR 34/17 A2976 RMK AO2 T03430171 10351 20313

More Conditions Fewer Conditions

10-Day Weather Forecast

×

Almanac

Astronomy

Jul. 05, 2015 Rise Set
Actual Time
Civil Twilight
Nautical Twilight
Astronomical Twilight
Moon
Length of Visible Light
Length of Day
Tomorrow will be .
, % of the Moon is Illuminated

Today's Extremes

State Highs State Lows

Community

WunderPhotos

Upload Photos

1,835,430 photos uploaded!

WunderBlogs® & News

Nearby

Air Quality

  Air Quality AQ Index Pollutant
Not available.

Snow Depth

Station Depth Elevation

Earthquake Activity

City Distance Mag. Time & Date
Minimum magnitude displayed is 2.5.

Coastal Water Temperatures

Place Temperature

Stations

Nearby Weather Stations

Station Location Temp. Windchill Dew Point Humidity Wind Precip. Elev Updated Type